Hovedside
METAR-TAF:

METAR-TAF

Lufthavner :

Moss lufthavn. Rygge

Rygge, Norge

breddegrad: 59-23N, lengdegrad: 010-47E, høyde over havet: 5 m

Gjeldene værobservasjon

Denne rapporten ble laget for 17 minutter siden, klokken 01:20 UTC
Vind 10 kt fra Nord-nordvest
Temperatur 4°C
Luftfuktighet 60%
Trykk 1014 hPa
Sikt 10 km eller mer

METAR: ENRY 110120Z AUTO 33010KT 9999NDV OVC057/// 04/M03 Q1014

Tid: 02:37 (01:37 UTC)

Varsel

Varsel gyldig fra 11. klokken 00 UTC til 11. klokken 24 UTC
Vind 12 kt fra Nord-nordvest
Sikt 10 km eller mer
ingen skyer under 1500 m og ingen bygeskyer
Sannsynlighet 40% :
Midlertidig
fra 11. klokken 00 UTC til 11. klokken 06 UTC
Vind 15 kt fra Nord med vindkast opp mot 25 kt

TAF: ENRY 1100/1124 34012KT CAVOK PROB40 TEMPO 1100/1106 35015G25KT

Værobservasjoner og værvarsel for over 4000 flyplasser (METAR- og TAF-rapporter).

Tilgjengelige stasjoner er representert av de røde og gule prikkene på kartet.

Hold musepekeren over prikken for å se navnet på stasjonen.

Klikk så for å se værobservasjoner og -varsler.

For å forandre kartet kan du klikke på den grønne knappen med svart kryss for å zoome inn, på den grønne knappen med strek for å zoome ut, eller på de grønne pilene for å se tilstøtende kart.


METAR-TAF: